Time,TemperatureF,DewpointF,PressureIn,WindDirection,WindDirectionDegrees,WindSpeedMPH,WindSpeedGustMPH,Humidity,HourlyPrecipIn,Conditions,Clouds,dailyrainin,SolarRadiationWatts/m^2,SoftwareType,DateUTC
2013-11-19 00:12:00,-23.5,-28.0,30.25,East,79,0.0,2.0,78,0.00,,,0.00,0,weatherlink.com 1.10,2013-11-19 09:12:00,
2013-11-19 00:27:00,-23.7,-28.0,30.25,East,79,1.0,2.0,78,0.00,,,0.00,0,weatherlink.com 1.10,2013-11-19 09:27:00,
2013-11-19 00:43:00,-23.9,-29.0,30.25,East,79,1.0,3.0,78,0.00,,,0.00,0,weatherlink.com 1.10,2013-11-19 09:43:00,
2013-11-19 00:57:00,-24.3,-29.0,30.25,East,79,2.0,2.0,78,0.00,,,0.00,0,weatherlink.com 1.10,2013-11-19 09:57:00,
2013-11-19 01:12:00,-24.7,-29.0,30.25,East,80,3.0,3.0,78,0.00,,,0.00,0,weatherlink.com 1.10,2013-11-19 10:12:00,
2013-11-19 01:27:00,-24.7,-29.0,30.25,East,81,2.0,3.0,78,0.00,,,0.00,0,weatherlink.com 1.10,2013-11-19 10:27:00,
2013-11-19 01:43:00,-24.7,-29.0,30.25,East,94,0.0,6.0,78,0.00,,,0.00,0,weatherlink.com 1.10,2013-11-19 10:43:00,
2013-11-19 01:58:00,-24.8,-30.0,30.25,East,94,1.0,3.0,78,0.00,,,0.00,0,weatherlink.com 1.10,2013-11-19 10:58:00,
2013-11-19 02:19:00,-25.2,-30.0,30.25,East,94,0.0,0.0,78,0.00,,,0.00,0,weatherlink.com 1.10,2013-11-19 11:19:00,
2013-11-19 02:34:00,-25.4,-30.0,30.25,East,94,1.0,2.0,78,0.00,,,0.00,0,weatherlink.com 1.10,2013-11-19 11:34:00,
2013-11-19 02:43:00,-25.6,-30.0,30.25,East,94,2.0,2.0,78,0.00,,,0.00,0,weatherlink.com 1.10,2013-11-19 11:43:00,
2013-11-19 02:58:00,-28.9,-34.0,30.25,East,94,2.0,2.0,77,0.00,,,0.00,0,weatherlink.com 1.10,2013-11-19 11:58:00,
2013-11-19 03:13:00,-29.4,-34.0,30.25,East,94,0.0,3.0,77,0.00,,,0.00,0,weatherlink.com 1.10,2013-11-19 12:13:00,
2013-11-19 03:28:00,-29.3,-34.0,30.25,East,94,2.0,2.0,77,0.00,,,0.00,0,weatherlink.com 1.10,2013-11-19 12:28:00,
2013-11-19 03:43:00,-26.5,-31.0,30.25,East,93,0.0,2.0,77,0.00,,,0.00,0,weatherlink.com 1.10,2013-11-19 12:43:00,
2013-11-19 03:59:00,-26.6,-31.0,30.25,East,93,0.0,1.0,77,0.00,,,0.00,0,weatherlink.com 1.10,2013-11-19 12:59:00,
2013-11-19 04:13:00,-26.7,-32.0,30.25,East,94,0.0,1.0,77,0.00,,,0.00,0,weatherlink.com 1.10,2013-11-19 13:13:00,
2013-11-19 04:28:00,-27.0,-32.0,30.25,East,93,0.0,0.0,77,0.00,,,0.00,0,weatherlink.com 1.10,2013-11-19 13:28:00,
2013-11-19 04:43:00,-29.9,-35.0,30.25,East,93,1.0,2.0,76,0.00,,,0.00,0,weatherlink.com 1.10,2013-11-19 13:43:00,
2013-11-19 04:59:00,-30.2,-35.0,30.25,East,93,0.0,2.0,76,0.00,,,0.00,0,weatherlink.com 1.10,2013-11-19 13:59:00,
2013-11-19 05:14:00,-30.3,-35.0,30.25,East,93,1.0,2.0,76,0.00,,,0.00,0,weatherlink.com 1.10,2013-11-19 14:14:00,
2013-11-19 05:29:00,-30.4,-35.0,30.25,East,94,1.0,2.0,76,0.00,,,0.00,0,weatherlink.com 1.10,2013-11-19 14:29:00,
2013-11-19 05:44:00,-30.4,-35.0,30.24,East,93,1.0,2.0,76,0.00,,,0.00,0,weatherlink.com 1.10,2013-11-19 14:44:00,
2013-11-19 05:59:00,-31.0,-36.0,30.25,East,93,0.0,2.0,75,0.00,,,0.00,0,weatherlink.com 1.10,2013-11-19 14:59:00,
2013-11-19 06:14:00,-30.9,-36.0,30.25,East,93,0.0,0.0,76,0.00,,,0.00,0,weatherlink.com 1.10,2013-11-19 15:14:00,
2013-11-19 06:29:00,-30.8,-36.0,30.25,East,93,0.0,0.0,76,0.00,,,0.00,0,weatherlink.com 1.10,2013-11-19 15:29:00,
2013-11-19 06:44:00,-31.2,-36.0,30.25,East,94,2.0,2.0,75,0.00,,,0.00,0,weatherlink.com 1.10,2013-11-19 15:44:00,
2013-11-19 06:59:00,-31.4,-36.0,30.24,East,93,0.0,2.0,76,0.00,,,0.00,0,weatherlink.com 1.10,2013-11-19 15:59:00,
2013-11-19 07:14:00,-31.9,-37.0,30.25,East,94,0.0,1.0,75,0.00,,,0.00,0,weatherlink.com 1.10,2013-11-19 16:14:00,
2013-11-19 07:29:00,-32.1,-37.0,30.25,East,94,0.0,1.0,76,0.00,,,0.00,0,weatherlink.com 1.10,2013-11-19 16:29:00,
2013-11-19 07:44:00,-29.7,-35.0,30.25,East,94,0.0,2.0,76,0.00,,,0.00,0,weatherlink.com 1.10,2013-11-19 16:44:00,
2013-11-19 08:00:00,-29.8,-35.0,30.24,East,93,0.0,2.0,76,0.00,,,0.00,0,weatherlink.com 1.10,2013-11-19 17:00:00,
2013-11-19 08:15:00,-29.9,-35.0,30.25,East,93,0.0,1.0,76,0.00,,,0.00,0,weatherlink.com 1.10,2013-11-19 17:15:00,
2013-11-19 08:30:00,-30.0,-35.0,30.25,East,93,0.0,1.0,76,0.00,,,0.00,0,weatherlink.com 1.10,2013-11-19 17:30:00,
2013-11-19 08:45:00,-30.2,-35.0,30.24,East,93,0.0,1.0,76,0.00,,,0.00,0,weatherlink.com 1.10,2013-11-19 17:45:00,
2013-11-19 09:00:00,-30.3,-35.0,30.25,East,93,0.0,0.0,76,0.00,,,0.00,0,weatherlink.com 1.10,2013-11-19 18:00:00,
2013-11-19 09:15:00,-30.4,-35.0,30.25,East,93,0.0,1.0,76,0.00,,,0.00,0,weatherlink.com 1.10,2013-11-19 18:15:00,
2013-11-19 09:30:00,-32.9,-38.0,30.25,East,93,0.0,1.0,76,0.00,,,0.00,5,weatherlink.com 1.10,2013-11-19 18:30:00,
2013-11-19 09:45:00,-31.5,-36.0,30.24,East,93,0.0,0.0,77,0.00,,,0.00,5,weatherlink.com 1.10,2013-11-19 18:45:00,
2013-11-19 10:00:00,-30.5,-35.0,30.24,East,93,0.0,1.0,77,0.00,,,0.00,5,weatherlink.com 1.10,2013-11-19 19:00:00,
2013-11-19 10:15:00,-29.6,-35.0,30.24,East,93,0.0,1.0,76,0.00,,,0.00,35,weatherlink.com 1.10,2013-11-19 19:15:00,
2013-11-19 10:30:00,-29.1,-34.0,30.24,East,93,0.0,1.0,76,0.00,,,0.00,14,weatherlink.com 1.10,2013-11-19 19:30:00,
2013-11-19 10:45:00,-28.7,-34.0,30.24,East,93,0.0,1.0,77,0.00,,,0.00,58,weatherlink.com 1.10,2013-11-19 19:45:00,
2013-11-19 11:00:00,-27.8,-33.0,30.24,East,93,0.0,1.0,77,0.00,,,0.00,54,weatherlink.com 1.10,2013-11-19 20:00:00,
2013-11-19 11:15:00,-27.2,-32.0,30.23,East,93,1.0,2.0,77,0.00,,,0.00,14,weatherlink.com 1.10,2013-11-19 20:15:00,
2013-11-19 11:31:00,-26.8,-32.0,30.23,East,93,0.0,1.0,77,0.00,,,0.00,14,weatherlink.com 1.10,2013-11-19 20:31:00,
2013-11-19 11:46:00,-26.1,-31.0,30.23,East,93,0.0,0.0,78,0.00,,,0.00,58,weatherlink.com 1.10,2013-11-19 20:46:00,
2013-11-19 12:01:00,-25.7,-30.0,30.23,East,93,0.0,1.0,78,0.00,,,0.00,16,weatherlink.com 1.10,2013-11-19 21:01:00,
2013-11-19 12:16:00,-25.5,-30.0,30.22,East,93,0.0,1.0,78,0.00,,,0.00,16,weatherlink.com 1.10,2013-11-19 21:16:00,
2013-11-19 12:46:00,-24.6,-29.0,30.22,East,93,0.0,0.0,78,0.00,,,0.00,37,weatherlink.com 1.10,2013-11-19 21:46:00,
2013-11-19 13:01:00,-23.4,-28.0,30.22,East,93,0.0,1.0,79,0.00,,,0.00,185,weatherlink.com 1.10,2013-11-19 22:01:00,
2013-11-19 13:16:00,-21.6,-26.0,30.21,East,93,0.0,0.0,79,0.00,,,0.00,18,weatherlink.com 1.10,2013-11-19 22:16:00,
2013-11-19 13:31:00,-17.2,-23.0,30.21,East,93,0.0,1.0,74,0.00,,,0.00,11,weatherlink.com 1.10,2013-11-19 22:31:00,
2013-11-19 13:46:00,-17.4,-24.0,30.21,East,93,0.0,1.0,71,0.00,,,0.00,11,weatherlink.com 1.10,2013-11-19 22:46:00,
2013-11-19 14:01:00,-17.7,-24.0,30.21,East,93,0.0,0.0,74,0.00,,,0.00,11,weatherlink.com 1.10,2013-11-19 23:01:00,
2013-11-19 14:16:00,-17.2,-23.0,30.21,East,93,0.0,0.0,74,0.00,,,0.00,11,weatherlink.com 1.10,2013-11-19 23:16:00,
2013-11-19 14:31:00,-16.8,-23.0,30.21,East,93,0.0,0.0,74,0.00,,,0.00,11,weatherlink.com 1.10,2013-11-19 23:31:00,
2013-11-19 14:47:00,-20.6,-25.0,30.20,East,93,0.0,0.0,79,0.00,,,0.00,11,weatherlink.com 1.10,2013-11-19 23:47:00,
2013-11-19 15:02:00,-20.3,-25.0,30.20,East,93,0.0,1.0,80,0.00,,,0.00,5,weatherlink.com 1.10,2013-11-20 00:02:00,
2013-11-19 15:17:00,-20.1,-25.0,30.20,East,93,0.0,0.0,79,0.00,,,0.00,0,weatherlink.com 1.10,2013-11-20 00:17:00,
2013-11-19 15:32:00,-19.7,-26.0,30.20,East,93,0.0,1.0,72,0.00,,,0.00,0,weatherlink.com 1.10,2013-11-20 00:32:00,
2013-11-19 15:47:00,-20.7,-26.0,30.19,East,93,0.0,0.0,75,0.00,,,0.00,0,weatherlink.com 1.10,2013-11-20 00:47:00,
2013-11-19 16:02:00,-22.5,-28.0,30.18,East,93,0.0,0.0,75,0.00,,,0.00,0,weatherlink.com 1.10,2013-11-20 01:02:00,
2013-11-19 16:17:00,-22.4,-27.0,30.18,East,93,0.0,0.0,79,0.00,,,0.00,0,weatherlink.com 1.10,2013-11-20 01:17:00,
2013-11-19 16:32:00,-20.7,-25.0,30.18,East,93,0.0,1.0,79,0.00,,,0.00,0,weatherlink.com 1.10,2013-11-20 01:32:00,
2013-11-19 16:47:00,-20.9,-25.0,30.18,East,93,0.0,0.0,79,0.00,,,0.00,0,weatherlink.com 1.10,2013-11-20 01:47:00,
2013-11-19 17:02:00,-21.3,-26.0,30.18,East,93,0.0,0.0,79,0.00,,,0.00,0,weatherlink.com 1.10,2013-11-20 02:02:00,
2013-11-19 17:17:00,-21.7,-26.0,30.18,East,93,0.0,0.0,79,0.00,,,0.00,0,weatherlink.com 1.10,2013-11-20 02:17:00,
2013-11-19 17:32:00,-24.5,-29.0,30.18,East,93,0.0,0.0,77,0.00,,,0.00,0,weatherlink.com 1.10,2013-11-20 02:32:00,
2013-11-19 17:47:00,-24.9,-30.0,30.18,East,93,0.0,0.0,77,0.00,,,0.00,0,weatherlink.com 1.10,2013-11-20 02:47:00,
2013-11-19 18:03:00,-25.4,-30.0,30.18,East,93,0.0,0.0,77,0.00,,,0.00,0,weatherlink.com 1.10,2013-11-20 03:03:00,
2013-11-19 18:18:00,-25.5,-30.0,30.18,East,93,0.0,1.0,78,0.00,,,0.00,0,weatherlink.com 1.10,2013-11-20 03:18:00,
2013-11-19 18:33:00,-23.5,-28.0,30.18,East,93,0.0,0.0,79,0.00,,,0.00,0,weatherlink.com 1.10,2013-11-20 03:33:00,
2013-11-19 18:48:00,-23.7,-28.0,30.18,East,93,0.0,1.0,78,0.00,,,0.00,0,weatherlink.com 1.10,2013-11-20 03:48:00,
2013-11-19 19:03:00,-24.2,-29.0,30.19,East,93,0.0,0.0,78,0.00,,,0.00,0,weatherlink.com 1.10,2013-11-20 04:03:00,
2013-11-19 19:18:00,-24.8,-30.0,30.18,East,93,0.0,0.0,78,0.00,,,0.00,0,weatherlink.com 1.10,2013-11-20 04:18:00,
2013-11-19 19:33:00,-25.1,-30.0,30.18,East,93,0.0,1.0,78,0.00,,,0.00,0,weatherlink.com 1.10,2013-11-20 04:33:00,
2013-11-19 19:48:00,-25.5,-30.0,30.18,East,93,1.0,1.0,78,0.00,,,0.00,0,weatherlink.com 1.10,2013-11-20 04:48:00,
2013-11-19 20:03:00,-25.6,-30.0,30.18,East,93,0.0,0.0,78,0.00,,,0.00,0,weatherlink.com 1.10,2013-11-20 05:03:00,
2013-11-19 20:18:00,-25.9,-31.0,30.19,East,93,0.0,0.0,77,0.00,,,0.00,0,weatherlink.com 1.10,2013-11-20 05:18:00,
2013-11-19 20:33:00,-26.2,-31.0,30.19,East,93,0.0,0.0,77,0.00,,,0.00,0,weatherlink.com 1.10,2013-11-20 05:33:00,
2013-11-19 20:48:00,-26.5,-31.0,30.19,East,93,0.0,0.0,77,0.00,,,0.00,0,weatherlink.com 1.10,2013-11-20 05:48:00,
2013-11-19 21:03:00,-26.8,-32.0,30.19,East,93,0.0,0.0,77,0.00,,,0.00,0,weatherlink.com 1.10,2013-11-20 06:03:00,
2013-11-19 21:19:00,-26.9,-32.0,30.19,East,93,0.0,0.0,77,0.00,,,0.00,0,weatherlink.com 1.10,2013-11-20 06:19:00,
2013-11-19 21:34:00,-27.1,-32.0,30.20,East,93,0.0,1.0,77,0.00,,,0.00,0,weatherlink.com 1.10,2013-11-20 06:34:00,
2013-11-19 21:49:00,-27.3,-32.0,30.20,East,93,0.0,1.0,77,0.00,,,0.00,0,weatherlink.com 1.10,2013-11-20 06:49:00,
2013-11-19 22:04:00,-30.2,-35.0,30.20,East,93,0.0,0.0,76,0.00,,,0.00,0,weatherlink.com 1.10,2013-11-20 07:04:00,
2013-11-19 22:19:00,-30.5,-36.0,30.20,East,93,0.0,0.0,76,0.00,,,0.00,0,weatherlink.com 1.10,2013-11-20 07:19:00,
2013-11-19 22:34:00,-30.4,-35.0,30.20,East,93,0.0,0.0,77,0.00,,,0.00,0,weatherlink.com 1.10,2013-11-20 07:34:00,
2013-11-19 22:49:00,-28.0,-33.0,30.21,East,93,0.0,0.0,77,0.00,,,0.00,0,weatherlink.com 1.10,2013-11-20 07:49:00,
2013-11-19 23:04:00,-28.3,-33.0,30.21,East,93,0.0,0.0,76,0.00,,,0.00,0,weatherlink.com 1.10,2013-11-20 08:04:00,
2013-11-19 23:19:00,-28.7,-34.0,30.21,East,93,0.0,0.0,76,0.00,,,0.00,0,weatherlink.com 1.10,2013-11-20 08:19:00,
2013-11-19 23:34:00,-28.9,-34.0,30.21,East,93,0.0,0.0,76,0.00,,,0.00,0,weatherlink.com 1.10,2013-11-20 08:34:00,
2013-11-19 23:49:00,-29.2,-34.0,30.21,East,93,0.0,0.0,76,0.00,,,0.00,0,weatherlink.com 1.10,2013-11-20 08:49:00,